• Join FlightAware (Why Join?)
  • Login
  • US Flag 
01:30PM EDT


 

Airport Tracker/Info


-or-


 

Live Flight TrackerFlight Track Log ✈ COM3167 ✈ 06-May-2012 ✈ KBWI - KCVG

Flight Track Log - Related Links

Times and Time Zones

All times are in EDT time to prevent confusion due to time zone crossing. See the COM3167 flight status page for this flight to view local times or setup timezone preferences in your user account.

Time Position Orientation Groundspeed Altitude Reporting Facility
EDT Latitude Longitude Course Direction KTS MPH feet Rate Location/Type
06:52AM 39.1500 -76.6500 270° West 163 188 2,100  Level Potomac TRACON
06:57AM 39.1500 -77.0500 251° West 354 407 12,800 2,040 Climbing Potomac TRACON
06:58AM 39.1156 -77.1753 253° West 385 443 14,500 1,800 Climbing Washington Center
06:59AM 39.0847 -77.3056 251° West 385 443 16,700 1,860 Climbing Washington Center
07:00AM 39.0514 -77.4333 251° West 385 443 18,300 1,740 Climbing Washington Center
07:01AM 39.0161 -77.5686 253° West 392 451 20,300 1,800 Climbing Washington Center
07:02AM 38.9800 -77.7197 251° West 402 463 22,000 1,440 Climbing Washington Center
07:03AM 38.9442 -77.8550 251° West 402 463 23,300 1,260 Climbing Washington Center
07:04AM 38.9058 -78.0006 252° West 419 482 24,600 1,320 Climbing Washington Center
07:05AM 38.8697 -78.1458 260° West 425 489 25,900 1,200 Climbing Washington Center
07:06AM 38.8497 -78.2944 270° West 425 489 27,000 540 Climbing Washington Center
07:07AM 38.8506 -78.4386 269° West 420 483 27,000  Level Washington Center
07:08AM 38.8494 -78.5717 269° West 420 483 27,000  Level Washington Center
07:09AM 38.8478 -78.7131 268° West 420 483 27,000  Level Washington Center
07:10AM 38.8442 -78.8542 268° West 409 471 27,000  Level Washington Center
07:11AM 38.8403 -78.9950 269° West 404 465 27,000 300 Level Washington Center
07:12AM 38.8381 -79.1417 270° West 404 465 27,700 480 Climbing Washington Center
07:13AM 38.8378 -79.2908 268° West 404 465 28,000 120 Climbing Washington Center
07:14AM 38.8333 -79.4344 271° West 404 465 28,000  Level Washington Center
07:15AM 38.8361 -79.6025 268° West 404 465 28,000  Level Washington Center
07:16AM 38.8311 -79.7517 269° West 419 482 28,000  Level Washington Center
07:17AM 38.8283 -79.8847 267° West 419 482 28,000  Level Washington Center
07:18AM 38.8233 -80.0283 268° West 419 482 28,000  Level Washington Center
07:19AM 38.8189 -80.2011 268° West 415 478 28,000  Level Indianapolis Center
07:20AM 38.8147 -80.3453 268° West 415 478 28,000  Level Indianapolis Center
07:21AM 38.8103 -80.4922 265° West 410 472 28,000  Level Indianapolis Center
07:22AM 38.7994 -80.6419 260° West 415 478 28,000  Level Indianapolis Center
07:23AM 38.7800 -80.7864 260° West 420 483 28,000  Level Indianapolis Center
07:24AM 38.7583 -80.9364 260° West 427 491 28,000  Level Indianapolis Center
07:25AM 38.7367 -81.0864 259° West 432 497 28,000  Level Indianapolis Center
07:26AM 38.7144 -81.2336 259° West 432 497 28,000  Level Indianapolis Center
07:27AM 38.6922 -81.3778 261° West 427 491 28,000  Level Indianapolis Center
07:28AM 38.6703 -81.5489 258° West 434 499 28,000  Level Indianapolis Center
07:29AM 38.6456 -81.7011 259° West 440 506 28,000  Level Indianapolis Center
07:30AM 38.6231 -81.8531 259° West 440 506 28,000  Level Indianapolis Center
07:31AM 38.6000 -82.0106 259° West 445 512 28,000  Level Indianapolis Center
07:32AM 38.5750 -82.1678 259° West 450 518 28,000 -540 Level Indianapolis Center
07:33AM 38.5517 -82.3194 259° West 450 518 27,000 -1,260 Descending Indianapolis Center
07:34AM 38.5281 -82.4739 258° West 450 518 25,500 -1,500 Descending Indianapolis Center
07:35AM 38.5022 -82.6256 259° West 444 511 24,000 -1,500 Descending Indianapolis Center
07:36AM 38.4783 -82.7772 258° West 449 517 22,500 -1,560 Descending Indianapolis Center
07:37AM 38.4542 -82.9258 265° West 444 511 20,900 -1,440 Descending Indianapolis Center
07:38AM 38.4444 -83.0664 282° West 424 488 19,700 -1,440 Descending Indianapolis Center
07:39AM 38.4678 -83.2042 286° West 402 463 18,100 -1,500 Descending Indianapolis Center
07:40AM 38.4975 -83.3367 283° West 397 457 16,700 -1,500 Descending Indianapolis Center
07:41AM 38.5225 -83.4719 286° West 392 451 15,200 -1,500 Descending Indianapolis Center
07:42AM 38.5497 -83.5969 283° West 392 451 13,700 -1,500 Descending Indianapolis Center
07:43AM 38.5725 -83.7269 287° West 375 432 12,200 -1,440 Descending Indianapolis Center
07:44AM 38.5975 -83.8333 289° West 364 419 10,900 -1,140 Descending Indianapolis Center
07:45AM 38.6303 -83.9558 291° West 364 419 10,000 -480 Descending Indianapolis Center
07:46AM 38.6653 -84.0756 292° West 344 396 10,000 -60 Level Indianapolis Center
07:47AM 38.6961 -84.1744 289° West 320 368 9,900 -780 Descending Indianapolis Center
07:48AM 38.7206 -84.2678 287° West 290 334 8,500 -1,020 Descending Indianapolis Center
07:49AM 38.7431 -84.3611 290° West 284 327 7,900 -960 Descending Indianapolis Center
07:50AM 38.7633 -84.4333 287° West 267 307 6,600 -720 Descending Indianapolis Center
07:52AM 38.8000 -84.5833 293° West 223 257 5,900 -660 Descending Cincinnati TRACON
07:53AM 38.8167 -84.6333 349° North 221 254 4,800 -960 Descending Cincinnati TRACON
07:54AM 38.8833 -84.6500 360° North 214 246 3,900 -1,200 Descending Cincinnati TRACON
07:55AM 38.9500 -84.6500 360° North 202 232 2,400 -1,080 Descending Cincinnati TRACON
07:56AM 39.0000 -84.6500 360° North 159 183 1,800 -600 Descending Cincinnati TRACON